sensor_id;sensor_type;location;lat;lon;timestamp;P1;P2;P0
44350;PMS5003;62766;62.622;17.912;2023-04-06T00:02:17;5;4;
44350;PMS5003;62766;62.622;17.912;2023-04-06T00:04:45;4;4;
44350;PMS5003;62766;62.622;17.912;2023-04-06T00:07:14;5;5;
44350;PMS5003;62766;62.622;17.912;2023-04-06T00:09:42;3;3;
44350;PMS5003;62766;62.622;17.912;2023-04-06T00:12:11;5;3;
44350;PMS5003;62766;62.622;17.912;2023-04-06T00:14:41;3;3;
44350;PMS5003;62766;62.622;17.912;2023-04-06T00:17:10;2;2;
44350;PMS5003;62766;62.622;17.912;2023-04-06T00:19:40;2;2;
44350;PMS5003;62766;62.622;17.912;2023-04-06T00:22:08;4;3;
44350;PMS5003;62766;62.622;17.912;2023-04-06T00:24:37;2;2;
44350;PMS5003;62766;62.622;17.912;2023-04-06T00:27:05;2;2;
44350;PMS5003;62766;62.622;17.912;2023-04-06T00:29:34;4;2;
44350;PMS5003;62766;62.622;17.912;2023-04-06T00:32:02;3;3;
44350;PMS5003;62766;62.622;17.912;2023-04-06T00:34:31;3;3;
44350;PMS5003;62766;62.622;17.912;2023-04-06T00:36:59;5;5;
44350;PMS5003;62766;62.622;17.912;2023-04-06T00:39:28;3;3;
44350;PMS5003;62766;62.622;17.912;2023-04-06T00:41:56;4;4;
44350;PMS5003;62766;62.622;17.912;2023-04-06T00:44:24;4;4;
44350;PMS5003;62766;62.622;17.912;2023-04-06T00:46:53;4;4;
44350;PMS5003;62766;62.622;17.912;2023-04-06T00:49:21;4;3;
44350;PMS5003;62766;62.622;17.912;2023-04-06T00:51:50;7;7;
44350;PMS5003;62766;62.622;17.912;2023-04-06T00:54:18;5;5;
44350;PMS5003;62766;62.622;17.912;2023-04-06T00:56:47;6;6;
44350;PMS5003;62766;62.622;17.912;2023-04-06T00:59:15;6;6;
44350;PMS5003;62766;62.622;17.912;2023-04-06T01:01:44;5;5;
44350;PMS5003;62766;62.622;17.912;2023-04-06T01:04:12;8;8;
44350;PMS5003;62766;62.622;17.912;2023-04-06T01:06:41;7;7;
44350;PMS5003;62766;62.622;17.912;2023-04-06T01:09:09;13;12;
44350;PMS5003;62766;62.622;17.912;2023-04-06T01:11:38;23;22;
44350;PMS5003;62766;62.622;17.912;2023-04-06T01:14:07;39;35;
44350;PMS5003;62766;62.622;17.912;2023-04-06T01:16:37;36;32;
44350;PMS5003;62766;62.622;17.912;2023-04-06T01:19:07;37;33;
44350;PMS5003;62766;62.622;17.912;2023-04-06T01:21:36;25;22;
44350;PMS5003;62766;62.622;17.912;2023-04-06T01:24:04;45;41;
44350;PMS5003;62766;62.622;17.912;2023-04-06T01:26:35;51;46;
44350;PMS5003;62766;62.622;17.912;2023-04-06T01:29:06;47;44;
44350;PMS5003;62766;62.622;17.912;2023-04-06T01:31:34;37;37;
44350;PMS5003;62766;62.622;17.912;2023-04-06T01:34:03;37;34;
44350;PMS5003;62766;62.622;17.912;2023-04-06T01:36:32;33;31;
44350;PMS5003;62766;62.622;17.912;2023-04-06T01:39:00;23;22;
44350;PMS5003;62766;62.622;17.912;2023-04-06T01:41:29;26;24;
44350;PMS5003;62766;62.622;17.912;2023-04-06T01:43:57;28;27;
44350;PMS5003;62766;62.622;17.912;2023-04-06T01:46:26;21;18;
44350;PMS5003;62766;62.622;17.912;2023-04-06T01:48:54;25;23;
44350;PMS5003;62766;62.622;17.912;2023-04-06T01:51:23;20;20;
44350;PMS5003;62766;62.622;17.912;2023-04-06T01:53:52;20;20;
44350;PMS5003;62766;62.622;17.912;2023-04-06T01:56:20;19;19;
44350;PMS5003;62766;62.622;17.912;2023-04-06T01:58:49;25;23;
44350;PMS5003;62766;62.622;17.912;2023-04-06T02:01:17;20;20;
44350;PMS5003;62766;62.622;17.912;2023-04-06T02:03:47;18;17;
44350;PMS5003;62766;62.622;17.912;2023-04-06T02:06:15;15;15;
44350;PMS5003;62766;62.622;17.912;2023-04-06T02:08:43;16;16;
44350;PMS5003;62766;62.622;17.912;2023-04-06T02:11:12;15;14;
44350;PMS5003;62766;62.622;17.912;2023-04-06T02:13:42;17;14;
44350;PMS5003;62766;62.622;17.912;2023-04-06T02:16:10;13;12;
44350;PMS5003;62766;62.622;17.912;2023-04-06T02:18:40;16;12;
44350;PMS5003;62766;62.622;17.912;2023-04-06T02:21:09;9;9;
44350;PMS5003;62766;62.622;17.912;2023-04-06T02:23:37;11;8;
44350;PMS5003;62766;62.622;17.912;2023-04-06T02:26:06;12;8;
44350;PMS5003;62766;62.622;17.912;2023-04-06T02:28:34;7;7;
44350;PMS5003;62766;62.622;17.912;2023-04-06T02:31:03;12;11;
44350;PMS5003;62766;62.622;17.912;2023-04-06T02:33:32;13;12;
44350;PMS5003;62766;62.622;17.912;2023-04-06T02:36:00;14;14;
44350;PMS5003;62766;62.622;17.912;2023-04-06T02:38:28;11;9;
44350;PMS5003;62766;62.622;17.912;2023-04-06T02:40:57;7;7;
44350;PMS5003;62766;62.622;17.912;2023-04-06T02:43:26;15;15;
44350;PMS5003;62766;62.622;17.912;2023-04-06T02:45:54;6;6;
44350;PMS5003;62766;62.622;17.912;2023-04-06T02:48:23;9;7;
44350;PMS5003;62766;62.622;17.912;2023-04-06T02:50:51;12;9;
44350;PMS5003;62766;62.622;17.912;2023-04-06T02:53:20;9;7;
44350;PMS5003;62766;62.622;17.912;2023-04-06T02:55:48;9;8;
44350;PMS5003;62766;62.622;17.912;2023-04-06T02:58:17;7;7;
44350;PMS5003;62766;62.622;17.912;2023-04-06T03:00:45;9;8;
44350;PMS5003;62766;62.622;17.912;2023-04-06T03:03:14;7;7;
44350;PMS5003;62766;62.622;17.912;2023-04-06T03:05:42;7;7;
44350;PMS5003;62766;62.622;17.912;2023-04-06T03:08:11;6;6;
44350;PMS5003;62766;62.622;17.912;2023-04-06T03:10:41;5;5;
44350;PMS5003;62766;62.622;17.912;2023-04-06T03:13:11;5;5;
44350;PMS5003;62766;62.622;17.912;2023-04-06T03:15:40;5;5;
44350;PMS5003;62766;62.622;17.912;2023-04-06T03:18:08;7;7;
44350;PMS5003;62766;62.622;17.912;2023-04-06T03:20:37;6;6;
44350;PMS5003;62766;62.622;17.912;2023-04-06T03:23:05;7;7;
44350;PMS5003;62766;62.622;17.912;2023-04-06T03:25:34;6;6;
44350;PMS5003;62766;62.622;17.912;2023-04-06T03:28:03;7;5;
44350;PMS5003;62766;62.622;17.912;2023-04-06T03:30:32;7;7;
44350;PMS5003;62766;62.622;17.912;2023-04-06T03:33:00;6;6;
44350;PMS5003;62766;62.622;17.912;2023-04-06T03:35:29;8;7;
44350;PMS5003;62766;62.622;17.912;2023-04-06T03:37:57;7;7;
44350;PMS5003;62766;62.622;17.912;2023-04-06T03:40:26;9;7;
44350;PMS5003;62766;62.622;17.912;2023-04-06T03:42:55;7;7;
44350;PMS5003;62766;62.622;17.912;2023-04-06T03:45:23;7;7;
44350;PMS5003;62766;62.622;17.912;2023-04-06T03:47:52;8;7;
44350;PMS5003;62766;62.622;17.912;2023-04-06T03:50:20;10;7;
44350;PMS5003;62766;62.622;17.912;2023-04-06T03:52:48;6;6;
44350;PMS5003;62766;62.622;17.912;2023-04-06T03:55:17;8;7;
44350;PMS5003;62766;62.622;17.912;2023-04-06T03:57:46;7;7;
44350;PMS5003;62766;62.622;17.912;2023-04-06T04:03:31;9;9;
44350;PMS5003;62766;62.622;17.912;2023-04-06T04:05:59;12;11;
44350;PMS5003;62766;62.622;17.912;2023-04-06T04:08:28;8;8;
44350;PMS5003;62766;62.622;17.912;2023-04-06T04:10:56;11;11;
44350;PMS5003;62766;62.622;17.912;2023-04-06T04:13:25;11;9;
44350;PMS5003;62766;62.622;17.912;2023-04-06T04:15:54;9;9;
44350;PMS5003;62766;62.622;17.912;2023-04-06T04:18:22;7;7;
44350;PMS5003;62766;62.622;17.912;2023-04-06T04:20:51;6;6;
44350;PMS5003;62766;62.622;17.912;2023-04-06T04:23:19;6;6;
44350;PMS5003;62766;62.622;17.912;2023-04-06T04:25:48;5;5;
44350;PMS5003;62766;62.622;17.912;2023-04-06T04:28:16;7;6;
44350;PMS5003;62766;62.622;17.912;2023-04-06T04:30:45;10;10;
44350;PMS5003;62766;62.622;17.912;2023-04-06T04:33:14;6;6;
44350;PMS5003;62766;62.622;17.912;2023-04-06T04:35:42;8;8;
44350;PMS5003;62766;62.622;17.912;2023-04-06T04:38:11;7;6;
44350;PMS5003;62766;62.622;17.912;2023-04-06T04:40:39;8;8;
44350;PMS5003;62766;62.622;17.912;2023-04-06T04:43:08;6;6;
44350;PMS5003;62766;62.622;17.912;2023-04-06T04:45:36;9;8;
44350;PMS5003;62766;62.622;17.912;2023-04-06T04:48:05;5;5;
44350;PMS5003;62766;62.622;17.912;2023-04-06T04:50:33;12;8;
44350;PMS5003;62766;62.622;17.912;2023-04-06T04:53:02;7;7;
44350;PMS5003;62766;62.622;17.912;2023-04-06T04:55:31;9;9;
44350;PMS5003;62766;62.622;17.912;2023-04-06T04:57:59;6;6;
44350;PMS5003;62766;62.622;17.912;2023-04-06T05:00:28;8;8;
44350;PMS5003;62766;62.622;17.912;2023-04-06T05:02:56;8;6;
44350;PMS5003;62766;62.622;17.912;2023-04-06T05:05:25;7;7;
44350;PMS5003;62766;62.622;17.912;2023-04-06T05:07:53;8;6;
44350;PMS5003;62766;62.622;17.912;2023-04-06T05:10:22;8;7;
44350;PMS5003;62766;62.622;17.912;2023-04-06T05:12:50;5;5;
44350;PMS5003;62766;62.622;17.912;2023-04-06T05:15:19;10;8;
44350;PMS5003;62766;62.622;17.912;2023-04-06T05:17:47;6;6;
44350;PMS5003;62766;62.622;17.912;2023-04-06T05:20:15;7;7;
44350;PMS5003;62766;62.622;17.912;2023-04-06T05:22:45;8;8;
44350;PMS5003;62766;62.622;17.912;2023-04-06T05:25:14;5;5;
44350;PMS5003;62766;62.622;17.912;2023-04-06T05:27:42;7;7;
44350;PMS5003;62766;62.622;17.912;2023-04-06T05:30:11;6;6;
44350;PMS5003;62766;62.622;17.912;2023-04-06T05:32:39;8;8;
44350;PMS5003;62766;62.622;17.912;2023-04-06T05:35:08;8;7;
44350;PMS5003;62766;62.622;17.912;2023-04-06T05:37:38;10;10;
44350;PMS5003;62766;62.622;17.912;2023-04-06T05:40:07;8;8;
44350;PMS5003;62766;62.622;17.912;2023-04-06T05:42:36;7;5;
44350;PMS5003;62766;62.622;17.912;2023-04-06T05:45:05;4;4;
44350;PMS5003;62766;62.622;17.912;2023-04-06T05:47:36;6;6;
44350;PMS5003;62766;62.622;17.912;2023-04-06T05:50:06;7;7;
44350;PMS5003;62766;62.622;17.912;2023-04-06T05:52:36;8;8;
44350;PMS5003;62766;62.622;17.912;2023-04-06T05:55:04;7;7;
44350;PMS5003;62766;62.622;17.912;2023-04-06T05:57:32;8;8;
44350;PMS5003;62766;62.622;17.912;2023-04-06T06:00:01;13;9;
44350;PMS5003;62766;62.622;17.912;2023-04-06T06:02:30;8;7;
44350;PMS5003;62766;62.622;17.912;2023-04-06T06:04:58;7;7;
44350;PMS5003;62766;62.622;17.912;2023-04-06T06:07:27;12;9;
44350;PMS5003;62766;62.622;17.912;2023-04-06T06:09:56;6;6;
44350;PMS5003;62766;62.622;17.912;2023-04-06T06:12:24;6;6;
44350;PMS5003;62766;62.622;17.912;2023-04-06T06:14:52;7;7;
44350;PMS5003;62766;62.622;17.912;2023-04-06T06:17:22;4;4;
44350;PMS5003;62766;62.622;17.912;2023-04-06T06:19:50;7;7;
44350;PMS5003;62766;62.622;17.912;2023-04-06T06:22:19;6;6;
44350;PMS5003;62766;62.622;17.912;2023-04-06T06:24:47;10;8;
44350;PMS5003;62766;62.622;17.912;2023-04-06T06:27:16;6;5;
44350;PMS5003;62766;62.622;17.912;2023-04-06T06:29:44;8;7;
44350;PMS5003;62766;62.622;17.912;2023-04-06T06:32:13;7;7;
44350;PMS5003;62766;62.622;17.912;2023-04-06T06:34:41;7;7;
44350;PMS5003;62766;62.622;17.912;2023-04-06T06:37:10;7;7;
44350;PMS5003;62766;62.622;17.912;2023-04-06T06:39:39;10;10;
44350;PMS5003;62766;62.622;17.912;2023-04-06T06:42:07;7;7;
44350;PMS5003;62766;62.622;17.912;2023-04-06T06:44:36;7;7;
44350;PMS5003;62766;62.622;17.912;2023-04-06T06:47:06;4;4;
44350;PMS5003;62766;62.622;17.912;2023-04-06T06:49:36;5;5;
44350;PMS5003;62766;62.622;17.912;2023-04-06T06:52:04;5;4;
44350;PMS5003;62766;62.622;17.912;2023-04-06T06:54:33;5;5;
44350;PMS5003;62766;62.622;17.912;2023-04-06T06:57:01;4;4;
44350;PMS5003;62766;62.622;17.912;2023-04-06T06:59:30;4;4;
44350;PMS5003;62766;62.622;17.912;2023-04-06T07:01:59;4;4;
44350;PMS5003;62766;62.622;17.912;2023-04-06T07:04:27;5;4;
44350;PMS5003;62766;62.622;17.912;2023-04-06T07:06:56;5;4;
44350;PMS5003;62766;62.622;17.912;2023-04-06T07:09:24;6;3;
44350;PMS5003;62766;62.622;17.912;2023-04-06T07:11:53;3;3;
44350;PMS5003;62766;62.622;17.912;2023-04-06T07:14:22;5;5;
44350;PMS5003;62766;62.622;17.912;2023-04-06T07:16:50;6;6;
44350;PMS5003;62766;62.622;17.912;2023-04-06T07:19:19;7;6;
44350;PMS5003;62766;62.622;17.912;2023-04-06T07:21:50;5;5;
44350;PMS5003;62766;62.622;17.912;2023-04-06T07:24:19;6;5;
44350;PMS5003;62766;62.622;17.912;2023-04-06T07:26:47;3;3;
44350;PMS5003;62766;62.622;17.912;2023-04-06T07:29:16;6;5;
44350;PMS5003;62766;62.622;17.912;2023-04-06T07:31:44;5;5;
44350;PMS5003;62766;62.622;17.912;2023-04-06T07:34:13;6;6;
44350;PMS5003;62766;62.622;17.912;2023-04-06T07:36:41;4;4;
44350;PMS5003;62766;62.622;17.912;2023-04-06T07:39:10;4;4;
44350;PMS5003;62766;62.622;17.912;2023-04-06T07:41:38;4;4;
44350;PMS5003;62766;62.622;17.912;2023-04-06T07:44:07;4;4;
44350;PMS5003;62766;62.622;17.912;2023-04-06T07:46:35;4;4;
44350;PMS5003;62766;62.622;17.912;2023-04-06T07:49:04;4;4;
44350;PMS5003;62766;62.622;17.912;2023-04-06T07:51:32;5;5;
44350;PMS5003;62766;62.622;17.912;2023-04-06T07:54:04;7;5;
44350;PMS5003;62766;62.622;17.912;2023-04-06T07:56:33;5;5;
44350;PMS5003;62766;62.622;17.912;2023-04-06T07:59:01;4;4;
44350;PMS5003;62766;62.622;17.912;2023-04-06T08:01:29;5;5;
44350;PMS5003;62766;62.622;17.912;2023-04-06T08:03:58;5;3;
44350;PMS5003;62766;62.622;17.912;2023-04-06T08:06:26;6;6;
44350;PMS5003;62766;62.622;17.912;2023-04-06T08:08:55;6;5;
44350;PMS5003;62766;62.622;17.912;2023-04-06T08:11:23;10;6;
44350;PMS5003;62766;62.622;17.912;2023-04-06T08:13:52;6;6;
44350;PMS5003;62766;62.622;17.912;2023-04-06T08:16:20;6;6;
44350;PMS5003;62766;62.622;17.912;2023-04-06T08:18:49;7;5;
44350;PMS5003;62766;62.622;17.912;2023-04-06T08:21:18;8;8;
44350;PMS5003;62766;62.622;17.912;2023-04-06T08:23:46;6;5;
44350;PMS5003;62766;62.622;17.912;2023-04-06T08:26:14;9;6;
44350;PMS5003;62766;62.622;17.912;2023-04-06T08:28:43;12;11;
44350;PMS5003;62766;62.622;17.912;2023-04-06T08:31:12;10;7;
44350;PMS5003;62766;62.622;17.912;2023-04-06T08:33:40;6;6;
44350;PMS5003;62766;62.622;17.912;2023-04-06T08:36:09;6;6;
44350;PMS5003;62766;62.622;17.912;2023-04-06T08:38:39;10;9;
44350;PMS5003;62766;62.622;17.912;2023-04-06T08:41:09;6;6;
44350;PMS5003;62766;62.622;17.912;2023-04-06T08:43:42;8;8;
44350;PMS5003;62766;62.622;17.912;2023-04-06T08:46:12;9;7;
44350;PMS5003;62766;62.622;17.912;2023-04-06T08:48:41;10;10;
44350;PMS5003;62766;62.622;17.912;2023-04-06T08:51:11;10;9;
44350;PMS5003;62766;62.622;17.912;2023-04-06T08:53:39;6;6;
44350;PMS5003;62766;62.622;17.912;2023-04-06T08:56:09;5;5;
44350;PMS5003;62766;62.622;17.912;2023-04-06T08:58:39;7;5;
44350;PMS5003;62766;62.622;17.912;2023-04-06T09:01:09;6;6;
44350;PMS5003;62766;62.622;17.912;2023-04-06T09:03:40;11;7;
44350;PMS5003;62766;62.622;17.912;2023-04-06T09:06:10;7;6;
44350;PMS5003;62766;62.622;17.912;2023-04-06T09:08:41;7;7;
44350;PMS5003;62766;62.622;17.912;2023-04-06T09:11:11;11;8;
44350;PMS5003;62766;62.622;17.912;2023-04-06T09:13:47;11;9;
44350;PMS5003;62766;62.622;17.912;2023-04-06T09:16:17;9;8;
44350;PMS5003;62766;62.622;17.912;2023-04-06T09:18:46;6;6;
44350;PMS5003;62766;62.622;17.912;2023-04-06T09:21:16;8;6;
44350;PMS5003;62766;62.622;17.912;2023-04-06T09:23:46;10;9;
44350;PMS5003;62766;62.622;17.912;2023-04-06T09:26:15;7;7;
44350;PMS5003;62766;62.622;17.912;2023-04-06T09:28:45;6;6;
44350;PMS5003;62766;62.622;17.912;2023-04-06T09:31:15;7;7;
44350;PMS5003;62766;62.622;17.912;2023-04-06T09:33:49;9;9;
44350;PMS5003;62766;62.622;17.912;2023-04-06T09:36:17;10;8;
44350;PMS5003;62766;62.622;17.912;2023-04-06T09:38:51;11;11;
44350;PMS5003;62766;62.622;17.912;2023-04-06T09:41:22;12;12;
44350;PMS5003;62766;62.622;17.912;2023-04-06T09:43:51;13;9;
44350;PMS5003;62766;62.622;17.912;2023-04-06T09:46:21;7;7;
44350;PMS5003;62766;62.622;17.912;2023-04-06T09:48:51;9;9;
44350;PMS5003;62766;62.622;17.912;2023-04-06T09:51:20;8;8;
44350;PMS5003;62766;62.622;17.912;2023-04-06T09:53:51;11;7;
44350;PMS5003;62766;62.622;17.912;2023-04-06T09:56:22;6;6;
44350;PMS5003;62766;62.622;17.912;2023-04-06T09:58:57;10;10;
44350;PMS5003;62766;62.622;17.912;2023-04-06T10:03:40;11;8;
44350;PMS5003;62766;62.622;17.912;2023-04-06T10:06:13;9;8;
44350;PMS5003;62766;62.622;17.912;2023-04-06T10:08:44;5;5;
44350;PMS5003;62766;62.622;17.912;2023-04-06T10:11:15;5;5;
44350;PMS5003;62766;62.622;17.912;2023-04-06T10:13:44;8;6;
44350;PMS5003;62766;62.622;17.912;2023-04-06T10:16:14;8;7;
44350;PMS5003;62766;62.622;17.912;2023-04-06T10:18:43;6;6;
44350;PMS5003;62766;62.622;17.912;2023-04-06T10:21:15;8;7;
44350;PMS5003;62766;62.622;17.912;2023-04-06T10:23:48;5;5;
44350;PMS5003;62766;62.622;17.912;2023-04-06T10:26:20;6;4;
44350;PMS5003;62766;62.622;17.912;2023-04-06T10:28:49;6;5;
44350;PMS5003;62766;62.622;17.912;2023-04-06T10:31:23;7;7;
44350;PMS5003;62766;62.622;17.912;2023-04-06T10:33:54;5;5;
44350;PMS5003;62766;62.622;17.912;2023-04-06T10:36:23;6;5;
44350;PMS5003;62766;62.622;17.912;2023-04-06T10:38:54;5;5;
44350;PMS5003;62766;62.622;17.912;2023-04-06T10:41:31;4;4;
44350;PMS5003;62766;62.622;17.912;2023-04-06T10:44:02;4;4;
44350;PMS5003;62766;62.622;17.912;2023-04-06T10:46:30;5;5;
44350;PMS5003;62766;62.622;17.912;2023-04-06T10:49:09;5;5;
44350;PMS5003;62766;62.622;17.912;2023-04-06T10:51:40;5;5;
44350;PMS5003;62766;62.622;17.912;2023-04-06T10:54:09;5;4;
44350;PMS5003;62766;62.622;17.912;2023-04-06T10:56:40;4;4;
44350;PMS5003;62766;62.622;17.912;2023-04-06T10:59:10;6;5;
44350;PMS5003;62766;62.622;17.912;2023-04-06T11:01:38;4;4;
44350;PMS5003;62766;62.622;17.912;2023-04-06T11:04:15;5;4;
44350;PMS5003;62766;62.622;17.912;2023-04-06T11:06:46;6;6;
44350;PMS5003;62766;62.622;17.912;2023-04-06T11:09:23;5;4;
44350;PMS5003;62766;62.622;17.912;2023-04-06T11:11:51;5;5;
44350;PMS5003;62766;62.622;17.912;2023-04-06T11:14:19;4;4;
44350;PMS5003;62766;62.622;17.912;2023-04-06T11:16:48;4;4;
44350;PMS5003;62766;62.622;17.912;2023-04-06T11:19:16;8;5;
44350;PMS5003;62766;62.622;17.912;2023-04-06T11:21:45;6;6;
44350;PMS5003;62766;62.622;17.912;2023-04-06T11:24:15;7;7;
44350;PMS5003;62766;62.622;17.912;2023-04-06T11:26:46;6;6;
44350;PMS5003;62766;62.622;17.912;2023-04-06T11:29:17;5;3;
44350;PMS5003;62766;62.622;17.912;2023-04-06T11:31:48;6;4;
44350;PMS5003;62766;62.622;17.912;2023-04-06T11:34:18;7;6;
44350;PMS5003;62766;62.622;17.912;2023-04-06T11:36:47;4;3;
44350;PMS5003;62766;62.622;17.912;2023-04-06T11:39:19;6;6;
44350;PMS5003;62766;62.622;17.912;2023-04-06T11:41:49;6;6;
44350;PMS5003;62766;62.622;17.912;2023-04-06T11:44:28;9;6;
44350;PMS5003;62766;62.622;17.912;2023-04-06T11:46:58;6;5;
44350;PMS5003;62766;62.622;17.912;2023-04-06T11:49:26;6;6;
44350;PMS5003;62766;62.622;17.912;2023-04-06T11:51:55;6;6;
44350;PMS5003;62766;62.622;17.912;2023-04-06T11:54:31;4;4;
44350;PMS5003;62766;62.622;17.912;2023-04-06T11:57:00;5;5;
44350;PMS5003;62766;62.622;17.912;2023-04-06T11:59:30;9;7;
44350;PMS5003;62766;62.622;17.912;2023-04-06T12:02:01;4;4;
44350;PMS5003;62766;62.622;17.912;2023-04-06T12:04:30;5;5;
44350;PMS5003;62766;62.622;17.912;2023-04-06T12:06:59;5;5;
44350;PMS5003;62766;62.622;17.912;2023-04-06T12:09:27;4;4;
44350;PMS5003;62766;62.622;17.912;2023-04-06T12:11:57;6;6;
44350;PMS5003;62766;62.622;17.912;2023-04-06T12:14:26;5;5;
44350;PMS5003;62766;62.622;17.912;2023-04-06T12:16:55;9;9;
44350;PMS5003;62766;62.622;17.912;2023-04-06T12:19:23;7;5;
44350;PMS5003;62766;62.622;17.912;2023-04-06T12:21:52;6;6;
44350;PMS5003;62766;62.622;17.912;2023-04-06T12:24:20;8;5;
44350;PMS5003;62766;62.622;17.912;2023-04-06T12:26:48;7;6;
44350;PMS5003;62766;62.622;17.912;2023-04-06T12:29:17;5;5;
44350;PMS5003;62766;62.622;17.912;2023-04-06T12:31:45;7;7;
44350;PMS5003;62766;62.622;17.912;2023-04-06T12:34:14;6;6;
44350;PMS5003;62766;62.622;17.912;2023-04-06T12:36:43;5;5;
44350;PMS5003;62766;62.622;17.912;2023-04-06T12:39:11;4;4;
44350;PMS5003;62766;62.622;17.912;2023-04-06T12:41:41;6;5;
44350;PMS5003;62766;62.622;17.912;2023-04-06T12:44:10;8;5;
44350;PMS5003;62766;62.622;17.912;2023-04-06T12:46:39;4;4;
44350;PMS5003;62766;62.622;17.912;2023-04-06T12:49:09;3;3;
44350;PMS5003;62766;62.622;17.912;2023-04-06T12:51:37;3;3;
44350;PMS5003;62766;62.622;17.912;2023-04-06T12:54:05;3;3;
44350;PMS5003;62766;62.622;17.912;2023-04-06T12:56:34;6;6;
44350;PMS5003;62766;62.622;17.912;2023-04-06T12:59:03;5;5;
44350;PMS5003;62766;62.622;17.912;2023-04-06T13:01:31;5;4;
44350;PMS5003;62766;62.622;17.912;2023-04-06T13:04:00;5;5;
44350;PMS5003;62766;62.622;17.912;2023-04-06T13:06:28;5;4;
44350;PMS5003;62766;62.622;17.912;2023-04-06T13:08:57;4;4;
44350;PMS5003;62766;62.622;17.912;2023-04-06T13:11:25;5;5;
44350;PMS5003;62766;62.622;17.912;2023-04-06T13:13:53;4;3;
44350;PMS5003;62766;62.622;17.912;2023-04-06T13:16:22;3;3;
44350;PMS5003;62766;62.622;17.912;2023-04-06T13:18:50;5;2;
44350;PMS5003;62766;62.622;17.912;2023-04-06T13:21:19;3;3;
44350;PMS5003;62766;62.622;17.912;2023-04-06T13:23:47;4;4;
44350;PMS5003;62766;62.622;17.912;2023-04-06T13:26:16;3;3;
44350;PMS5003;62766;62.622;17.912;2023-04-06T13:28:44;4;4;
44350;PMS5003;62766;62.622;17.912;2023-04-06T13:31:12;4;2;
44350;PMS5003;62766;62.622;17.912;2023-04-06T13:33:41;4;4;
44350;PMS5003;62766;62.622;17.912;2023-04-06T13:36:11;4;4;
44350;PMS5003;62766;62.622;17.912;2023-04-06T13:38:40;2;2;
44350;PMS5003;62766;62.622;17.912;2023-04-06T13:41:10;6;5;
44350;PMS5003;62766;62.622;17.912;2023-04-06T13:43:38;4;4;
44350;PMS5003;62766;62.622;17.912;2023-04-06T13:46:06;3;3;
44350;PMS5003;62766;62.622;17.912;2023-04-06T13:48:37;4;4;
44350;PMS5003;62766;62.622;17.912;2023-04-06T13:51:08;4;4;
44350;PMS5003;62766;62.622;17.912;2023-04-06T13:53:37;5;5;
44350;PMS5003;62766;62.622;17.912;2023-04-06T13:56:06;7;7;
44350;PMS5003;62766;62.622;17.912;2023-04-06T13:58:35;7;5;
44350;PMS5003;62766;62.622;17.912;2023-04-06T14:01:04;4;4;
44350;PMS5003;62766;62.622;17.912;2023-04-06T14:03:34;4;4;
44350;PMS5003;62766;62.622;17.912;2023-04-06T14:06:09;2;2;
44350;PMS5003;62766;62.622;17.912;2023-04-06T14:08:38;5;5;
44350;PMS5003;62766;62.622;17.912;2023-04-06T14:11:10;8;5;
44350;PMS5003;62766;62.622;17.912;2023-04-06T14:13:39;5;4;
44350;PMS5003;62766;62.622;17.912;2023-04-06T14:16:08;4;4;
44350;PMS5003;62766;62.622;17.912;2023-04-06T14:18:37;4;4;
44350;PMS5003;62766;62.622;17.912;2023-04-06T14:21:05;7;7;
44350;PMS5003;62766;62.622;17.912;2023-04-06T14:23:34;4;4;
44350;PMS5003;62766;62.622;17.912;2023-04-06T14:26:03;7;6;
44350;PMS5003;62766;62.622;17.912;2023-04-06T14:28:32;10;10;
44350;PMS5003;62766;62.622;17.912;2023-04-06T14:31:09;6;5;
44350;PMS5003;62766;62.622;17.912;2023-04-06T14:33:40;8;8;
44350;PMS5003;62766;62.622;17.912;2023-04-06T14:36:10;7;7;
44350;PMS5003;62766;62.622;17.912;2023-04-06T14:38:38;8;5;
44350;PMS5003;62766;62.622;17.912;2023-04-06T14:41:07;5;4;
44350;PMS5003;62766;62.622;17.912;2023-04-06T14:43:37;4;4;
44350;PMS5003;62766;62.622;17.912;2023-04-06T14:46:05;4;4;
44350;PMS5003;62766;62.622;17.912;2023-04-06T14:48:34;6;6;
44350;PMS5003;62766;62.622;17.912;2023-04-06T14:51:02;6;6;
44350;PMS5003;62766;62.622;17.912;2023-04-06T14:53:30;5;5;
44350;PMS5003;62766;62.622;17.912;2023-04-06T14:55:59;6;6;
44350;PMS5003;62766;62.622;17.912;2023-04-06T14:58:27;9;8;
44350;PMS5003;62766;62.622;17.912;2023-04-06T15:00:56;3;3;
44350;PMS5003;62766;62.622;17.912;2023-04-06T15:03:26;4;4;
44350;PMS5003;62766;62.622;17.912;2023-04-06T15:05:56;4;4;
44350;PMS5003;62766;62.622;17.912;2023-04-06T15:08:24;4;4;
44350;PMS5003;62766;62.622;17.912;2023-04-06T15:10:53;4;4;
44350;PMS5003;62766;62.622;17.912;2023-04-06T15:13:21;7;6;
44350;PMS5003;62766;62.622;17.912;2023-04-06T15:15:50;3;3;
44350;PMS5003;62766;62.622;17.912;2023-04-06T15:18:18;7;4;
44350;PMS5003;62766;62.622;17.912;2023-04-06T15:20:47;5;5;
44350;PMS5003;62766;62.622;17.912;2023-04-06T15:23:16;5;5;
44350;PMS5003;62766;62.622;17.912;2023-04-06T15:25:44;5;5;
44350;PMS5003;62766;62.622;17.912;2023-04-06T15:28:13;7;5;
44350;PMS5003;62766;62.622;17.912;2023-04-06T15:30:41;6;5;
44350;PMS5003;62766;62.622;17.912;2023-04-06T15:33:09;5;5;
44350;PMS5003;62766;62.622;17.912;2023-04-06T15:35:38;7;4;
44350;PMS5003;62766;62.622;17.912;2023-04-06T15:38:06;4;4;
44350;PMS5003;62766;62.622;17.912;2023-04-06T15:40:38;3;3;
44350;PMS5003;62766;62.622;17.912;2023-04-06T15:43:10;4;4;
44350;PMS5003;62766;62.622;17.912;2023-04-06T15:45:39;6;4;
44350;PMS5003;62766;62.622;17.912;2023-04-06T15:48:09;6;6;
44350;PMS5003;62766;62.622;17.912;2023-04-06T15:50:38;5;5;
44350;PMS5003;62766;62.622;17.912;2023-04-06T15:53:06;5;5;
44350;PMS5003;62766;62.622;17.912;2023-04-06T15:55:35;12;9;
44350;PMS5003;62766;62.622;17.912;2023-04-06T15:58:04;6;6;
44350;PMS5003;62766;62.622;17.912;2023-04-06T16:03:19;5;4;
44350;PMS5003;62766;62.622;17.912;2023-04-06T16:05:48;5;4;
44350;PMS5003;62766;62.622;17.912;2023-04-06T16:08:17;5;5;
44350;PMS5003;62766;62.622;17.912;2023-04-06T16:10:46;9;6;
44350;PMS5003;62766;62.622;17.912;2023-04-06T16:13:15;4;4;
44350;PMS5003;62766;62.622;17.912;2023-04-06T16:15:43;7;5;
44350;PMS5003;62766;62.622;17.912;2023-04-06T16:18:12;4;4;
44350;PMS5003;62766;62.622;17.912;2023-04-06T16:20:40;5;5;
44350;PMS5003;62766;62.622;17.912;2023-04-06T16:23:09;4;4;
44350;PMS5003;62766;62.622;17.912;2023-04-06T16:25:37;5;5;
44350;PMS5003;62766;62.622;17.912;2023-04-06T16:28:05;5;5;
44350;PMS5003;62766;62.622;17.912;2023-04-06T16:30:35;5;5;
44350;PMS5003;62766;62.622;17.912;2023-04-06T16:33:04;5;5;
44350;PMS5003;62766;62.622;17.912;2023-04-06T16:35:32;4;4;
44350;PMS5003;62766;62.622;17.912;2023-04-06T16:38:01;4;4;
44350;PMS5003;62766;62.622;17.912;2023-04-06T16:40:29;6;6;
44350;PMS5003;62766;62.622;17.912;2023-04-06T16:42:58;8;3;
44350;PMS5003;62766;62.622;17.912;2023-04-06T16:45:26;6;5;
44350;PMS5003;62766;62.622;17.912;2023-04-06T16:47:55;3;3;
44350;PMS5003;62766;62.622;17.912;2023-04-06T16:50:23;6;5;